KPRC

Ernest A Love Field Airport

Prescott, Arizona, USA
KPRC 210540Z 2106/2206 VRB05KT P6SM BKN150 FM211800 VRB06KT P6SM FEW070 BKN110 PROB30 2120/2201 VRB12G22KT 5SM -TSRA BKN060CB
Issued Valid From Valid To
Jul-21 @ 05:40 UTC
(4 hours ago)
Jul-21 @ 06:00 UTC
(4 hours ago)
Jul-22 @ 06:00 UTC
(in 20 hours)
Jul-21 @ 06:00 to Jul-21 @ 18:00
KPRC 210540Z 2106/2206 VRB05KT P6SM BKN150
Wind Visibility Clouds
Variable at 5 knots Greater than 6 miles
  • Broken at 15,000' AGL
From Jul-21 @ 18:00 to Jul-22 @ 06:00
FM211800 VRB06KT P6SM FEW070 BKN110
Wind Visibility Clouds
Variable at 6 knots Greater than 6 miles
  • Few at 7,000' AGL
  • Broken at 11,000' AGL
Probable  (Probability 30%) Jul-21 @ 20:00 to Jul-22 @ 01:00
PROB30 2120/2201 VRB12G22KT 5SM -TSRA BKN060CB
Wind Visibility Clouds Conditions
Variable at 12 knots
 Gusting to 22 knots
5 miles
  • Broken at 6,000' AGL
  • Light Thunderstorm
  • Light Rain
KPRC 210540Z 2106/2206 VRB05KT P6SM BKN150 FM211800 VRB06KT P6SM FEW070 BKN110 PROB30 2120/2201 VRB12G22KT 5SM -TSRA BKN060CB
Issued Jul-21 @ 05:40 UTC
(4 hours ago)
Valid From Jul-21 @ 06:00 UTC
(4 hours ago)
Valid To Jul-22 @ 06:00 UTC
(in 20 hours)
Jul-21 @ 06:00 - Jul-21 @ 18:00
Wind Visibility
Variable at 5 knots Greater than 6 miles
Clouds
  • Broken at 15,000' AGL
From Jul-21 @ 18:00 - Jul-22 @ 06:00
Wind Visibility
Variable at 6 knots Greater than 6 miles
Clouds
  • Few at 7,000' AGL
  • Broken at 11,000' AGL
Probability 30% Probable Jul-21 @ 20:00 - Jul-22 @ 01:00
Wind Visibility
Variable at 12 knots
 Gusting to 22 knots
5 miles
Clouds
  • Broken at 6,000' AGL
Conditions
  • Light Thunderstorm
  • Light Rain